createdAt,value
2022-11-15T00:01:35.090Z,6.84
2022-11-15T00:04:07.852Z,6.72
2022-11-15T00:06:39.561Z,6.65
2022-11-15T00:09:11.397Z,6.65
2022-11-15T00:11:43.280Z,6.62
2022-11-15T00:14:15.610Z,6.72
2022-11-15T00:16:47.480Z,6.64
2022-11-15T00:19:19.278Z,6.47
2022-11-15T00:21:50.813Z,6.42
2022-11-15T00:24:22.518Z,6.51
2022-11-15T00:26:54.230Z,6.40
2022-11-15T00:32:37.098Z,6.51
2022-11-15T00:35:10.145Z,6.68
2022-11-15T00:37:41.964Z,6.56
2022-11-15T00:40:15.672Z,6.48
2022-11-15T00:42:47.350Z,6.56
2022-11-15T00:45:19.295Z,6.64
2022-11-15T00:47:50.948Z,6.79
2022-11-15T00:50:23.074Z,6.90
2022-11-15T00:52:54.729Z,7.00
2022-11-15T00:55:26.807Z,7.02
2022-11-15T00:58:06.987Z,6.98
2022-11-15T01:00:47.875Z,6.85
2022-11-15T01:03:28.355Z,6.79
2022-11-15T01:06:03.261Z,6.87
2022-11-15T01:08:35.184Z,6.85
2022-11-15T01:11:08.198Z,6.72
2022-11-15T01:13:42.260Z,6.71
2022-11-15T01:16:17.968Z,6.70
2022-11-15T01:18:49.915Z,6.74
2022-11-15T01:21:22.887Z,6.64
2022-11-15T01:23:57.779Z,6.71
2022-11-15T01:26:29.881Z,6.82
2022-11-15T01:29:01.697Z,6.73
2022-11-15T01:31:33.825Z,6.58
2022-11-15T01:34:05.635Z,6.56
2022-11-15T01:36:37.538Z,6.61
2022-11-15T01:39:10.919Z,6.74
2022-11-15T01:41:42.833Z,6.89
2022-11-15T01:44:49.364Z,6.95
2022-11-15T01:47:25.143Z,6.80
2022-11-15T01:50:02.445Z,6.89
2022-11-15T01:52:37.756Z,6.85
2022-11-15T01:55:12.853Z,6.78
2022-11-15T01:57:46.962Z,6.77
2022-11-15T02:00:20.027Z,6.85
2022-11-15T02:02:52.040Z,6.91
2022-11-15T02:05:24.205Z,6.94
2022-11-15T02:07:56.415Z,6.67
2022-11-15T02:10:32.006Z,6.50
2022-11-15T02:13:04.852Z,6.52
2022-11-15T02:15:43.298Z,6.50
2022-11-15T02:18:26.836Z,6.44
2022-11-15T02:21:14.880Z,6.60
2022-11-15T02:24:26.211Z,6.78
2022-11-15T02:27:19.268Z,6.65
2022-11-15T02:30:09.784Z,6.65
2022-11-15T02:32:47.521Z,6.50
2022-11-15T02:35:27.054Z,6.47
2022-11-15T02:38:02.584Z,6.37
2022-11-15T02:40:41.983Z,6.36
2022-11-15T02:43:36.226Z,6.31
2022-11-15T02:46:15.864Z,6.32
2022-11-15T02:48:48.303Z,6.49
2022-11-15T02:51:21.531Z,6.57
2022-11-15T02:53:53.402Z,6.58
2022-11-15T02:56:25.449Z,6.65
2022-11-15T02:59:19.524Z,6.71
2022-11-15T03:02:07.608Z,6.81
2022-11-15T03:04:46.989Z,6.91
2022-11-15T03:07:28.315Z,6.90
2022-11-15T03:10:08.909Z,6.84
2022-11-15T03:12:46.602Z,6.65
2022-11-15T03:15:24.188Z,6.61
2022-11-15T03:18:02.527Z,6.72
2022-11-15T03:20:37.547Z,6.78
2022-11-15T03:23:12.849Z,6.78
2022-11-15T03:25:48.204Z,6.77
2022-11-15T03:28:26.752Z,6.67
2022-11-15T03:31:01.935Z,6.68
2022-11-15T03:33:34.689Z,6.73
2022-11-15T03:36:07.368Z,6.78
2022-11-15T03:38:40.999Z,6.70
2022-11-15T03:41:19.274Z,6.71
2022-11-15T03:43:55.805Z,6.68
2022-11-15T03:46:32.141Z,6.66
2022-11-15T03:49:11.261Z,6.55
2022-11-15T03:51:43.792Z,6.50
2022-11-15T03:54:16.888Z,6.55
2022-11-15T03:56:48.739Z,6.63
2022-11-15T03:59:20.608Z,6.59
2022-11-15T04:01:52.539Z,6.56
2022-11-15T04:04:24.514Z,6.58
2022-11-15T04:06:56.333Z,6.65
2022-11-15T04:09:28.729Z,6.71
2022-11-15T04:12:00.807Z,6.72
2022-11-15T04:14:32.508Z,6.74
2022-11-15T04:17:04.308Z,6.74
2022-11-15T04:19:53.705Z,6.78
2022-11-15T04:22:42.916Z,6.72
2022-11-15T04:25:27.242Z,6.59
2022-11-15T04:28:10.326Z,6.64
2022-11-15T04:30:52.005Z,6.76
2022-11-15T04:33:24.017Z,6.69
2022-11-15T04:36:13.244Z,6.64
2022-11-15T04:38:44.995Z,6.56
2022-11-15T04:41:16.752Z,6.57
2022-11-15T04:43:48.672Z,6.55
2022-11-15T04:46:20.656Z,6.71
2022-11-15T04:48:58.032Z,6.70
2022-11-15T04:51:30.821Z,6.75
2022-11-15T04:54:02.568Z,6.78
2022-11-15T04:56:34.536Z,6.71
2022-11-15T04:59:06.542Z,6.72
2022-11-15T05:01:43.580Z,6.61
2022-11-15T05:04:22.466Z,6.57
2022-11-15T05:06:54.974Z,6.65
2022-11-15T05:09:26.795Z,6.59
2022-11-15T05:11:58.547Z,6.61
2022-11-15T05:14:30.850Z,6.64
2022-11-15T05:17:02.912Z,6.57
2022-11-15T05:19:35.468Z,6.52
2022-11-15T05:22:07.126Z,6.51
2022-11-15T05:24:38.946Z,6.46
2022-11-15T05:27:10.628Z,6.44
2022-11-15T05:29:42.333Z,6.41
2022-11-15T05:32:14.677Z,6.43
2022-11-15T05:34:47.126Z,6.52
2022-11-15T05:37:19.308Z,6.55
2022-11-15T05:39:51.657Z,6.59
2022-11-15T05:42:23.448Z,6.48
2022-11-15T05:44:55.581Z,6.43
2022-11-15T05:47:30.496Z,6.46
2022-11-15T05:50:02.558Z,6.55
2022-11-15T05:52:38.282Z,6.53
2022-11-15T05:55:12.398Z,6.61
2022-11-15T05:57:44.517Z,6.72
2022-11-15T06:00:18.123Z,6.77
2022-11-15T06:02:50.014Z,6.72
2022-11-15T06:05:21.820Z,6.60
2022-11-15T06:07:53.677Z,6.56
2022-11-15T06:10:25.518Z,6.49
2022-11-15T06:13:03.037Z,6.47
2022-11-15T06:15:36.380Z,6.46
2022-11-15T06:18:08.317Z,6.51
2022-11-15T06:20:39.840Z,6.54
2022-11-15T06:23:11.424Z,6.61
2022-11-15T06:25:43.084Z,6.75
2022-11-15T06:28:14.658Z,6.86
2022-11-15T06:30:50.524Z,6.83
2022-11-15T06:33:24.743Z,6.72
2022-11-15T06:35:56.395Z,6.68
2022-11-15T06:38:28.918Z,6.71
2022-11-15T06:41:06.271Z,6.73
2022-11-15T06:43:39.070Z,6.73
2022-11-15T06:46:11.428Z,6.64
2022-11-15T06:48:43.113Z,6.67
2022-11-15T06:51:14.561Z,6.75
2022-11-15T06:53:46.017Z,6.90
2022-11-15T06:56:17.599Z,6.92
2022-11-15T06:58:49.051Z,6.93
2022-11-15T07:01:20.775Z,6.87
2022-11-15T07:03:52.526Z,6.73
2022-11-15T07:06:24.115Z,6.78
2022-11-15T07:08:56.750Z,6.81
2022-11-15T07:11:28.565Z,6.89
2022-11-15T07:14:00.617Z,7.02
2022-11-15T07:16:32.631Z,7.07
2022-11-15T07:19:04.740Z,6.95
2022-11-15T07:21:37.082Z,6.96
2022-11-15T07:24:10.103Z,7.15
2022-11-15T07:26:42.111Z,7.14
2022-11-15T07:29:14.428Z,7.21
2022-11-15T07:31:46.785Z,7.21
2022-11-15T07:34:18.561Z,7.30
2022-11-15T07:36:50.991Z,7.22
2022-11-15T07:39:22.602Z,7.12
2022-11-15T07:42:16.018Z,7.04
2022-11-15T07:44:47.783Z,7.12
2022-11-15T07:47:19.401Z,7.18
2022-11-15T07:49:51.223Z,7.22
2022-11-15T07:52:22.791Z,7.13
2022-11-15T07:54:54.653Z,7.35
2022-11-15T07:57:26.301Z,7.52
2022-11-15T07:59:57.952Z,7.57
2022-11-15T08:02:30.683Z,7.52
2022-11-15T08:05:02.477Z,7.69
2022-11-15T08:07:35.216Z,7.72
2022-11-15T08:10:09.749Z,7.65
2022-11-15T08:12:41.551Z,7.52
2022-11-15T08:15:14.343Z,7.45
2022-11-15T08:17:46.193Z,7.52
2022-11-15T08:20:18.918Z,7.67
2022-11-15T08:22:50.516Z,7.72
2022-11-15T08:25:22.181Z,7.67
2022-11-15T08:27:55.759Z,7.68
2022-11-15T08:30:27.966Z,7.78
2022-11-15T08:33:01.228Z,7.87
2022-11-15T08:35:33.429Z,7.87
2022-11-15T08:38:06.014Z,8.03
2022-11-15T08:40:37.749Z,8.04
2022-11-15T08:43:10.088Z,8.03
2022-11-15T08:45:43.063Z,8.03
2022-11-15T08:48:14.701Z,7.94
2022-11-15T08:50:46.420Z,8.01
2022-11-15T08:53:18.018Z,8.03
2022-11-15T08:55:49.732Z,7.97
2022-11-15T08:58:21.583Z,8.05
2022-11-15T09:00:53.585Z,8.09
2022-11-15T09:03:25.183Z,8.06
2022-11-15T09:06:01.505Z,8.07
2022-11-15T09:08:50.577Z,8.15
2022-11-15T09:11:23.458Z,8.21
2022-11-15T09:13:55.535Z,8.29
2022-11-15T09:16:27.023Z,8.25
2022-11-15T09:18:58.575Z,8.16
2022-11-15T09:21:31.096Z,8.12
2022-11-15T09:24:04.082Z,8.14
2022-11-15T09:26:35.727Z,8.32
2022-11-15T09:29:07.371Z,8.49
2022-11-15T09:31:39.188Z,8.50
2022-11-15T09:34:10.847Z,8.45
2022-11-15T09:36:43.652Z,8.55
2022-11-15T09:39:15.708Z,8.67
2022-11-15T09:42:02.790Z,8.64
2022-11-15T09:45:02.508Z,8.53
2022-11-15T09:47:58.654Z,8.73
2022-11-15T09:50:39.305Z,8.62
2022-11-15T09:53:41.498Z,8.64
2022-11-15T09:56:20.539Z,8.75
2022-11-15T09:59:00.612Z,8.75
2022-11-15T10:01:44.471Z,8.77
2022-11-15T10:04:16.896Z,8.91
2022-11-15T10:06:56.653Z,8.93
2022-11-15T10:09:31.896Z,8.95
2022-11-15T10:12:03.681Z,9.03
2022-11-15T10:14:35.488Z,9.12
2022-11-15T10:17:31.075Z,9.22
2022-11-15T10:20:12.491Z,9.33
2022-11-15T10:22:49.005Z,9.38
2022-11-15T10:25:27.315Z,9.33
2022-11-15T10:28:01.816Z,9.35
2022-11-15T10:30:39.557Z,9.42
2022-11-15T10:33:25.088Z,9.42
2022-11-15T10:36:19.398Z,9.45
2022-11-15T10:39:01.918Z,9.40
2022-11-15T10:41:40.999Z,9.45
2022-11-15T10:44:31.288Z,9.53
2022-11-15T10:47:27.414Z,9.63
2022-11-15T10:50:02.201Z,9.75
2022-11-15T10:52:33.033Z,9.76
2022-11-15T10:55:22.561Z,9.72
2022-11-15T10:57:57.400Z,9.75
2022-11-15T11:00:32.978Z,9.98
2022-11-15T11:03:08.325Z,10.19
2022-11-15T11:05:43.179Z,10.17
2022-11-15T11:08:31.182Z,10.15
2022-11-15T11:11:04.701Z,10.25
2022-11-15T11:13:38.889Z,10.43
2022-11-15T11:16:44.290Z,10.45
2022-11-15T11:19:58.880Z,10.37
2022-11-15T11:22:39.803Z,10.31
2022-11-15T11:25:28.573Z,10.30
2022-11-15T11:28:17.379Z,10.21
2022-11-15T11:31:00.964Z,10.25
2022-11-15T11:33:38.727Z,10.31
2022-11-15T11:36:22.845Z,10.33
2022-11-15T11:39:08.603Z,10.32
2022-11-15T11:41:52.465Z,10.21
2022-11-15T11:44:35.096Z,10.16
2022-11-15T11:47:13.311Z,10.15
2022-11-15T11:49:52.290Z,10.11
2022-11-15T11:52:29.658Z,10.10
2022-11-15T11:55:08.655Z,10.11
2022-11-15T11:57:46.695Z,10.18
2022-11-15T12:00:25.130Z,10.39
2022-11-15T12:03:07.581Z,10.42
2022-11-15T12:05:42.994Z,10.51
2022-11-15T12:08:28.491Z,10.58
2022-11-15T12:11:08.941Z,10.63
2022-11-15T12:13:41.141Z,10.73
2022-11-15T12:16:19.152Z,10.74
2022-11-15T12:18:53.956Z,10.68
2022-11-15T12:21:29.946Z,10.54
2022-11-15T12:24:07.475Z,10.55
2022-11-15T12:26:44.262Z,10.63
2022-11-15T12:29:22.351Z,10.61
2022-11-15T12:31:58.285Z,10.56
2022-11-15T12:34:42.980Z,10.57
2022-11-15T12:37:49.915Z,10.54
2022-11-15T12:40:39.190Z,10.52
2022-11-15T12:43:43.683Z,10.52
2022-11-15T12:46:25.949Z,10.49
2022-11-15T12:49:02.340Z,10.59
2022-11-15T12:52:10.377Z,10.64
2022-11-15T12:55:29.843Z,10.68
2022-11-15T12:58:44.238Z,10.67
2022-11-15T13:01:52.645Z,10.71
2022-11-15T13:04:33.446Z,10.64
2022-11-15T13:07:08.986Z,10.61
2022-11-15T13:09:58.103Z,10.70
2022-11-15T13:12:57.998Z,10.79
2022-11-15T13:15:43.268Z,10.66
2022-11-15T13:18:34.369Z,10.69
2022-11-15T13:21:30.333Z,10.74
2022-11-15T13:24:01.945Z,10.78
2022-11-15T13:26:33.616Z,10.77
2022-11-15T13:29:05.892Z,10.68
2022-11-15T13:31:44.856Z,10.56
2022-11-15T13:34:53.243Z,10.53
2022-11-15T13:37:35.723Z,10.50
2022-11-15T13:40:32.624Z,10.49
2022-11-15T13:43:16.709Z,10.51
2022-11-15T13:45:48.171Z,10.45
2022-11-15T13:48:19.605Z,10.37
2022-11-15T13:50:51.224Z,10.31
2022-11-15T13:53:22.836Z,10.24
2022-11-15T13:55:58.184Z,10.27
2022-11-15T13:58:29.970Z,10.23
2022-11-15T14:01:06.408Z,10.17
2022-11-15T14:03:49.560Z,10.17
2022-11-15T14:06:23.296Z,10.14
2022-11-15T14:09:18.520Z,10.12
2022-11-15T14:11:58.903Z,10.14
2022-11-15T14:14:31.779Z,10.01
2022-11-15T14:17:04.681Z,9.97
2022-11-15T14:19:41.785Z,9.97
2022-11-15T14:22:18.680Z,9.96
2022-11-15T14:25:07.736Z,9.87
2022-11-15T14:27:39.379Z,9.80
2022-11-15T14:30:17.745Z,9.88
2022-11-15T14:32:50.962Z,9.93
2022-11-15T14:35:24.924Z,9.87
2022-11-15T14:37:56.706Z,9.78
2022-11-15T14:40:28.570Z,9.73
2022-11-15T14:43:00.242Z,9.57
2022-11-15T14:45:32.320Z,9.49
2022-11-15T14:48:03.751Z,9.38
2022-11-15T14:50:37.344Z,9.28
2022-11-15T14:53:09.915Z,9.31
2022-11-15T14:55:41.847Z,9.30
2022-11-15T14:58:13.409Z,9.27
2022-11-15T15:00:45.657Z,9.19
2022-11-15T15:03:17.257Z,9.14
2022-11-15T15:05:49.216Z,9.15
2022-11-15T15:08:20.932Z,9.07
2022-11-15T15:10:52.512Z,9.09
2022-11-15T15:13:28.376Z,9.02
2022-11-15T15:16:00.200Z,8.94
2022-11-15T15:18:32.735Z,8.93
2022-11-15T15:21:08.415Z,8.78
2022-11-15T15:23:39.931Z,8.70
2022-11-15T15:26:12.020Z,8.61
2022-11-15T15:28:44.580Z,8.57
2022-11-15T15:31:16.394Z,8.53
2022-11-15T15:33:48.200Z,8.45
2022-11-15T15:36:22.380Z,8.40
2022-11-15T15:38:54.360Z,8.30
2022-11-15T15:41:25.976Z,8.16
2022-11-15T15:44:00.811Z,8.01
2022-11-15T15:46:30.516Z,7.96
2022-11-15T15:49:02.572Z,8.05
2022-11-15T15:51:37.874Z,8.10
2022-11-15T15:54:10.378Z,8.01
2022-11-15T15:56:42.364Z,7.88
2022-11-15T15:59:14.407Z,7.70
2022-11-15T16:01:47.578Z,7.61
2022-11-15T16:04:19.775Z,7.62
2022-11-15T16:06:53.942Z,7.72
2022-11-15T16:09:46.495Z,7.63
2022-11-15T16:12:18.823Z,7.61
2022-11-15T16:14:51.584Z,7.66
2022-11-15T16:17:30.094Z,7.80
2022-11-15T16:20:04.988Z,7.78
2022-11-15T16:22:36.751Z,7.67
2022-11-15T16:25:09.902Z,7.63
2022-11-15T16:27:46.196Z,7.50
2022-11-15T16:30:21.288Z,7.60
2022-11-15T16:32:54.869Z,7.62
2022-11-15T16:35:26.807Z,7.57
2022-11-15T16:37:59.153Z,7.53
2022-11-15T16:40:33.322Z,7.64
2022-11-15T16:43:07.474Z,7.60
2022-11-15T16:45:40.124Z,7.63
2022-11-15T16:48:25.655Z,7.77
2022-11-15T16:50:59.620Z,7.86
2022-11-15T16:53:31.442Z,7.84
2022-11-15T16:56:03.139Z,7.93
2022-11-15T16:58:35.515Z,7.84
2022-11-15T17:01:09.433Z,7.89
2022-11-15T17:03:41.112Z,8.01
2022-11-15T17:06:15.149Z,8.14
2022-11-15T17:08:47.012Z,8.09
2022-11-15T17:11:20.837Z,8.14
2022-11-15T17:13:59.543Z,8.17
2022-11-15T17:16:31.905Z,8.11
2022-11-15T17:19:04.101Z,8.09
2022-11-15T17:21:35.823Z,8.05
2022-11-15T17:24:09.284Z,8.09
2022-11-15T17:26:43.206Z,8.22
2022-11-15T17:29:15.520Z,8.22
2022-11-15T17:31:49.761Z,8.20
2022-11-15T17:34:22.410Z,8.15
2022-11-15T17:36:54.688Z,8.10
2022-11-15T17:39:26.973Z,8.05
2022-11-15T17:41:59.531Z,8.08
2022-11-15T17:44:31.841Z,8.12
2022-11-15T17:47:03.950Z,8.18
2022-11-15T17:49:39.781Z,8.17
2022-11-15T17:52:11.912Z,8.13
2022-11-15T17:54:43.943Z,8.16
2022-11-15T17:57:15.886Z,8.11
2022-11-15T17:59:51.236Z,8.11
2022-11-15T18:02:23.303Z,8.04
2022-11-15T18:04:55.054Z,8.00
2022-11-15T18:07:27.136Z,8.06
2022-11-15T18:10:00.661Z,8.04
2022-11-15T18:12:32.790Z,8.00
2022-11-15T18:15:04.336Z,8.01
2022-11-15T18:17:37.484Z,8.02
2022-11-15T18:20:10.944Z,8.03
2022-11-15T18:22:42.712Z,8.01
2022-11-15T18:25:19.207Z,7.92
2022-11-15T18:27:55.576Z,7.89
2022-11-15T18:30:27.847Z,7.84
2022-11-15T18:32:59.959Z,7.77
2022-11-15T18:35:31.651Z,7.74
2022-11-15T18:38:05.826Z,7.78
2022-11-15T18:40:37.614Z,7.81
2022-11-15T18:43:09.727Z,7.74
2022-11-15T18:45:41.416Z,7.80
2022-11-15T18:48:13.005Z,7.93
2022-11-15T18:50:44.802Z,7.92
2022-11-15T18:53:17.758Z,8.00
2022-11-15T18:55:49.471Z,8.05
2022-11-15T18:58:21.434Z,8.03
2022-11-15T19:00:52.979Z,7.99
2022-11-15T19:03:24.884Z,7.92
2022-11-15T19:06:02.841Z,7.71
2022-11-15T19:08:35.650Z,7.76
2022-11-15T19:11:10.025Z,7.78
2022-11-15T19:13:45.944Z,7.78
2022-11-15T19:16:18.833Z,7.65
2022-11-15T19:18:54.432Z,7.56
2022-11-15T19:21:27.079Z,7.47
2022-11-15T19:23:58.891Z,7.44
2022-11-15T19:26:31.654Z,7.35
2022-11-15T19:29:07.851Z,7.35
2022-11-15T19:31:40.849Z,7.35
2022-11-15T19:34:13.631Z,7.27
2022-11-15T19:36:46.647Z,7.29
2022-11-15T19:39:19.610Z,7.32
2022-11-15T19:41:52.287Z,7.18
2022-11-15T19:44:26.921Z,7.13
2022-11-15T19:46:58.902Z,7.15
2022-11-15T19:49:33.886Z,7.10
2022-11-15T19:52:05.795Z,7.14
2022-11-15T19:54:37.899Z,7.11
2022-11-15T19:57:09.676Z,7.07
2022-11-15T19:59:41.514Z,7.06
2022-11-15T20:02:18.583Z,7.06
2022-11-15T20:04:51.500Z,7.02
2022-11-15T20:07:24.019Z,6.90
2022-11-15T20:09:55.858Z,6.92
2022-11-15T20:12:27.276Z,6.90
2022-11-15T20:15:02.884Z,6.80
2022-11-15T20:17:34.494Z,6.83
2022-11-15T20:20:07.141Z,6.94
2022-11-15T20:22:38.794Z,6.94
2022-11-15T20:25:11.984Z,6.96
2022-11-15T20:27:43.497Z,6.84
2022-11-15T20:30:16.451Z,6.80
2022-11-15T20:32:48.292Z,6.74
2022-11-15T20:35:21.384Z,6.85
2022-11-15T20:37:53.543Z,6.92
2022-11-15T20:40:25.213Z,7.00
2022-11-15T20:42:57.710Z,6.95
2022-11-15T20:45:29.452Z,6.91
2022-11-15T20:48:01.846Z,6.91
2022-11-15T20:50:42.694Z,6.87
2022-11-15T20:53:17.099Z,6.93
2022-11-15T20:55:51.273Z,6.91
2022-11-15T20:58:23.348Z,6.84
2022-11-15T21:01:01.200Z,6.71
2022-11-15T21:03:33.425Z,6.59
2022-11-15T21:06:05.235Z,6.67
2022-11-15T21:08:50.927Z,6.74
2022-11-15T21:11:40.168Z,6.78
2022-11-15T21:14:11.672Z,6.77
2022-11-15T21:16:43.243Z,6.82
2022-11-15T21:19:15.386Z,6.83
2022-11-15T21:21:46.820Z,6.76
2022-11-15T21:24:18.445Z,6.78
2022-11-15T21:26:50.111Z,6.82
2022-11-15T21:29:21.649Z,6.74
2022-11-15T21:31:54.270Z,6.65
2022-11-15T21:34:26.061Z,6.73
2022-11-15T21:36:57.402Z,6.74
2022-11-15T21:39:28.961Z,6.64
2022-11-15T21:42:00.503Z,6.48
2022-11-15T21:44:32.595Z,6.41
2022-11-15T21:47:04.291Z,6.30
2022-11-15T21:49:35.902Z,6.29
2022-11-15T21:52:07.682Z,6.36
2022-11-15T21:54:41.830Z,6.36
2022-11-15T21:57:13.670Z,6.39
2022-11-15T21:59:58.956Z,6.35
2022-11-15T22:02:28.647Z,6.33
2022-11-15T22:05:00.254Z,6.30
2022-11-15T22:07:31.908Z,6.47
2022-11-15T22:10:05.098Z,6.56
2022-11-15T22:12:36.710Z,6.53
2022-11-15T22:15:09.427Z,6.43
2022-11-15T22:17:59.468Z,6.39
2022-11-15T22:20:44.571Z,6.41
2022-11-15T22:23:16.883Z,6.38
2022-11-15T22:25:48.724Z,6.50
2022-11-15T22:28:20.967Z,6.47
2022-11-15T22:30:54.251Z,6.54
2022-11-15T22:33:27.416Z,6.49
2022-11-15T22:35:59.813Z,6.35
2022-11-15T22:38:31.898Z,6.32
2022-11-15T22:41:04.180Z,6.27
2022-11-15T22:43:36.316Z,6.25
2022-11-15T22:46:08.925Z,6.32
2022-11-15T22:48:41.263Z,6.31
2022-11-15T22:51:12.945Z,6.29
2022-11-15T22:53:44.623Z,6.30
2022-11-15T22:56:20.288Z,6.19
2022-11-15T22:58:52.180Z,6.12
2022-11-15T23:01:25.147Z,6.12
2022-11-15T23:03:57.001Z,6.16
2022-11-15T23:06:28.583Z,6.09
2022-11-15T23:09:00.386Z,6.07
2022-11-15T23:11:49.036Z,6.04
2022-11-15T23:14:20.987Z,5.99
2022-11-15T23:16:52.975Z,5.97
2022-11-15T23:19:25.063Z,6.01
2022-11-15T23:22:14.030Z,5.92
2022-11-15T23:24:45.636Z,5.99
2022-11-15T23:27:20.363Z,6.03
2022-11-15T23:30:09.489Z,6.10
2022-11-15T23:32:58.334Z,6.06
2022-11-15T23:35:30.100Z,5.95
2022-11-15T23:38:01.900Z,5.90
2022-11-15T23:40:33.733Z,5.94
2022-11-15T23:43:06.586Z,5.88
2022-11-15T23:45:41.149Z,5.90
2022-11-15T23:48:13.549Z,6.05
2022-11-15T23:50:47.824Z,6.13
2022-11-15T23:53:19.365Z,6.23
2022-11-15T23:55:59.845Z,6.15
2022-11-15T23:58:32.025Z,6.15
